Terminal Aerodrome Forecast
Issued by NWS

Home | Current Version | Previous Version | Text Only | Print | Product List | Glossary Off
Versions: 1 2 3 4 5 6 7 8 9 10 11 12 13 14 15 16 17 18 19 20 21 22

000
FTUS43 KTOP 220500
TAFMHK
TAF
KMHK 220520Z 2206/2306 13005KT P6SM SCT150
     FM221600 18013G20KT P6SM SCT250
     FM230000 19007KT P6SM SCT040 BKN250
      TEMPO 2302/2306 -SHRA BKN035=

USA.gov is the U.S. government's official web portal to all federal, state and local government web resources and services.